Time;durP1;ratioP1;P1;durP2;ratioP2;P2;SDS_P1;SDS_P2;PMS_P1;PMS_P2;Temp;Humidity;BMP_temperature;BMP_pressure;BME280_temperature;BME280_humidity;BME280_pressure;Samples;Min_cycle;Max_cycle;Signal;HPM_P1;HPM_P2
2022/10/12 00:00:03;;;;;;;62.63;6.20;;;;;;;;;;5115224;28;21050;-68
2022/10/12 00:02:30;;;;;;;62.10;6.07;;;;;;;;;;5114898;28;20454;-68
2022/10/12 00:04:57;;;;;;;60.57;5.27;;;;;;;;;;5115646;28;20444;-68
2022/10/12 00:07:24;;;;;;;62.20;6.70;;;;;;;;;;5115676;28;20802;-68
2022/10/12 00:09:53;;;;;;;61.07;5.10;;;;;;;;;;5115382;28;20447;-69
2022/10/12 00:12:20;;;;;;;61.40;6.10;;;;;;;;;;5115314;28;20819;-69
2022/10/12 00:14:47;;;;;;;61.57;5.17;;;;;;;;;;5114718;28;20461;-69
2022/10/12 00:17:14;;;;;;;62.20;5.70;;;;;;;;;;5115184;28;20450;-69
2022/10/12 00:19:41;;;;;;;61.43;4.90;;;;;;;;;;5115045;28;20445;-68
2022/10/12 00:22:08;;;;;;;62.00;5.23;;;;;;;;;;5115474;28;20453;-68
2022/10/12 00:24:35;;;;;;;62.67;5.20;;;;;;;;;;5114472;28;20458;-69
2022/10/12 00:27:03;;;;;;;59.60;4.20;;;;;;;;;;5114951;28;20468;-68
2022/10/12 00:29:31;;;;;;;61.90;6.17;;;;;;;;;;5114626;28;20445;-68
2022/10/12 00:31:58;;;;;;;64.60;5.17;;;;;;;;;;5114997;28;20820;-68
2022/10/12 00:34:25;;;;;;;61.50;5.33;;;;;;;;;;5115010;27;20463;-68
2022/10/12 00:36:52;;;;;;;64.00;6.67;;;;;;;;;;5114219;28;20478;-69
2022/10/12 00:39:19;;;;;;;61.33;5.20;;;;;;;;;;5114677;28;20797;-68
2022/10/12 00:41:46;;;;;;;61.90;6.20;;;;;;;;;;5114753;27;20491;-68
2022/10/12 00:44:32;;;;;;;61.33;5.80;;;;;;;;;;5114791;28;20451;-68
2022/10/12 00:47:01;;;;;;;63.47;5.47;;;;;;;;;;5114711;28;20466;-68
2022/10/12 00:49:29;;;;;;;63.00;4.90;;;;;;;;;;5113991;28;20498;-68
2022/10/12 00:51:58;;;;;;;61.30;4.93;;;;;;;;;;5114787;28;20441;-68
2022/10/12 00:54:27;;;;;;;60.77;5.20;;;;;;;;;;5113564;28;20442;-68
2022/10/12 00:56:55;;;;;;;59.90;5.50;;;;;;;;;;5115479;28;20466;-68
2022/10/12 00:59:25;;;;;;;61.97;5.30;;;;;;;;;;5114517;28;20456;-69
2022/10/12 01:01:52;;;;;;;61.87;6.00;;;;;;;;;;5114985;28;20496;-68
2022/10/12 01:04:21;;;;;;;66.27;5.60;;;;;;;;;;5115024;28;20450;-69
2022/10/12 01:06:49;;;;;;;65.63;6.03;;;;;;;;;;5114751;28;20463;-68
2022/10/12 01:09:16;;;;;;;61.57;6.20;;;;;;;;;;5114971;28;20450;-68
2022/10/12 01:11:43;;;;;;;64.70;5.30;;;;;;;;;;5114331;27;20446;-68
2022/10/12 01:14:10;;;;;;;60.87;4.63;;;;;;;;;;5115091;28;20462;-68
2022/10/12 01:16:42;;;;;;;63.13;6.77;;;;;;;;;;5114631;28;20468;-68
2022/10/12 01:19:19;;;;;;;62.80;5.13;;;;;;;;;;5114481;28;20445;-68
2022/10/12 01:21:51;;;;;;;61.97;6.23;;;;;;;;;;5114152;28;20493;-69
2022/10/12 01:24:29;;;;;;;63.77;5.40;;;;;;;;;;5114847;28;20879;-68
2022/10/12 01:27:01;;;;;;;61.87;5.03;;;;;;;;;;5114696;28;20539;-69
2022/10/12 01:29:46;;;;;;;68.27;5.80;;;;;;;;;;5114799;28;20865;-68
2022/10/12 01:32:18;;;;;;;61.27;4.90;;;;;;;;;;5104665;28;20453;-68
2022/10/12 01:34:46;;;;;;;63.33;5.77;;;;;;;;;;5113880;28;20956;-69
2022/10/12 01:37:16;;;;;;;60.30;4.97;;;;;;;;;;5114517;28;21098;-68
2022/10/12 01:39:46;;;;;;;62.67;5.37;;;;;;;;;;5114543;28;20448;-69
2022/10/12 01:42:15;;;;;;;62.90;6.30;;;;;;;;;;5114671;28;20482;-68
2022/10/12 01:44:42;;;;;;;62.57;5.07;;;;;;;;;;5114508;28;20446;-69
2022/10/12 01:47:09;;;;;;;60.57;4.47;;;;;;;;;;5114387;28;20471;-68
2022/10/12 01:49:40;;;;;;;61.50;5.93;;;;;;;;;;5114461;28;20452;-69
2022/10/12 01:52:16;;;;;;;62.73;5.67;;;;;;;;;;5113267;27;20445;-68
2022/10/12 01:54:51;;;;;;;60.40;4.80;;;;;;;;;;5114437;28;20451;-69
2022/10/12 01:57:20;;;;;;;60.10;4.87;;;;;;;;;;5113942;28;20453;-68
2022/10/12 01:59:51;;;;;;;60.83;5.20;;;;;;;;;;5113030;28;20636;-68
2022/10/12 02:02:23;;;;;;;65.17;6.23;;;;;;;;;;5113729;28;20488;-68
2022/10/12 02:04:53;;;;;;;60.20;3.90;;;;;;;;;;5113028;27;20449;-68
2022/10/12 02:07:23;;;;;;;61.97;5.40;;;;;;;;;;5113370;28;20445;-68
2022/10/12 02:09:51;;;;;;;60.57;4.70;;;;;;;;;;5112607;28;20455;-68
2022/10/12 02:12:20;;;;;;;61.43;5.73;;;;;;;;;;5113175;28;20445;-68
2022/10/12 02:14:51;;;;;;;60.30;4.40;;;;;;;;;;5112756;28;20449;-68
2022/10/12 02:17:19;;;;;;;61.87;5.70;;;;;;;;;;5113232;28;20482;-69
2022/10/12 02:19:49;;;;;;;61.40;5.90;;;;;;;;;;5111967;28;20450;-68
2022/10/12 02:22:18;;;;;;;65.33;6.67;;;;;;;;;;5112914;28;20486;-68
2022/10/12 02:24:47;;;;;;;63.83;4.77;;;;;;;;;;5112733;28;20449;-68
2022/10/12 02:27:15;;;;;;;61.27;5.47;;;;;;;;;;5112877;28;20756;-68
2022/10/12 02:29:43;;;;;;;62.67;4.60;;;;;;;;;;5112347;28;20737;-68
2022/10/12 02:32:15;;;;;;;63.07;5.20;;;;;;;;;;5112350;28;20443;-68
2022/10/12 02:34:44;;;;;;;61.83;5.23;;;;;;;;;;5113013;28;20514;-68
2022/10/12 02:37:16;;;;;;;61.07;4.90;;;;;;;;;;5112478;28;20473;-68
2022/10/12 02:39:46;;;;;;;61.17;5.13;;;;;;;;;;5112443;28;20805;-68
2022/10/12 02:42:17;;;;;;;62.33;6.00;;;;;;;;;;5112497;28;20486;-68
2022/10/12 02:44:45;;;;;;;61.60;5.43;;;;;;;;;;5112448;28;20448;-68
2022/10/12 02:47:13;;;;;;;62.03;5.53;;;;;;;;;;5112595;28;20469;-68
2022/10/12 02:49:42;;;;;;;62.73;6.07;;;;;;;;;;5112141;28;20510;-68
2022/10/12 02:52:09;;;;;;;63.40;6.07;;;;;;;;;;5112547;28;20442;-69
2022/10/12 02:54:36;;;;;;;60.77;4.50;;;;;;;;;;5111615;28;20453;-68
2022/10/12 02:57:05;;;;;;;60.77;5.70;;;;;;;;;;5112473;28;20466;-69
2022/10/12 02:59:32;;;;;;;63.67;6.40;;;;;;;;;;5112063;28;20441;-68
2022/10/12 03:01:59;;;;;;;61.73;4.47;;;;;;;;;;5112518;28;20486;-68
2022/10/12 03:04:26;;;;;;;59.77;4.67;;;;;;;;;;5112273;28;20450;-68
2022/10/12 03:06:53;;;;;;;66.87;7.03;;;;;;;;;;5111412;28;20465;-68
2022/10/12 03:09:20;;;;;;;64.00;4.70;;;;;;;;;;5112271;28;20449;-69
2022/10/12 03:11:47;;;;;;;61.20;5.00;;;;;;;;;;5112418;28;20445;-69
2022/10/12 03:14:16;;;;;;;61.90;4.97;;;;;;;;;;5112299;28;20460;-69
2022/10/12 03:16:45;;;;;;;63.00;5.60;;;;;;;;;;5112508;28;20926;-69
2022/10/12 03:19:12;;;;;;;61.60;4.67;;;;;;;;;;5115879;28;20869;-69
2022/10/12 03:21:39;;;;;;;60.20;4.57;;;;;;;;;;5116001;28;20487;-69
2022/10/12 03:24:07;;;;;;;62.87;6.10;;;;;;;;;;5116633;28;20441;-69
2022/10/12 03:26:34;;;;;;;61.30;5.23;;;;;;;;;;5116522;27;20805;-68
2022/10/12 03:29:01;;;;;;;61.63;5.33;;;;;;;;;;5115366;28;20460;-68
2022/10/12 03:31:29;;;;;;;59.60;4.27;;;;;;;;;;5116171;28;20450;-68
2022/10/12 03:33:56;;;;;;;62.47;5.43;;;;;;;;;;5116089;28;20454;-68
2022/10/12 03:36:24;;;;;;;61.07;5.70;;;;;;;;;;5116069;28;21011;-68
2022/10/12 03:38:51;;;;;;;63.83;5.37;;;;;;;;;;5115968;28;20464;-68
2022/10/12 03:41:18;;;;;;;62.03;5.20;;;;;;;;;;5115238;28;20473;-69
2022/10/12 03:43:45;;;;;;;60.50;4.90;;;;;;;;;;5115960;28;20941;-69
2022/10/12 03:46:13;;;;;;;62.57;5.00;;;;;;;;;;5115915;28;20825;-69
2022/10/12 03:48:41;;;;;;;64.67;6.73;;;;;;;;;;5115460;28;20486;-68
2022/10/12 03:51:08;;;;;;;61.50;5.33;;;;;;;;;;5116043;27;20930;-69
2022/10/12 03:53:35;;;;;;;64.67;5.10;;;;;;;;;;5115532;28;20450;-69
2022/10/12 03:56:03;;;;;;;61.97;5.90;;;;;;;;;;5115908;28;20466;-69
2022/10/12 03:58:30;;;;;;;62.17;5.43;;;;;;;;;;5115597;28;20826;-69
2022/10/12 04:00:57;;;;;;;62.40;6.00;;;;;;;;;;5115503;28;20499;-68
2022/10/12 04:03:24;;;;;;;60.47;4.83;;;;;;;;;;5115439;28;20450;-68
2022/10/12 04:05:56;;;;;;;61.00;4.80;;;;;;;;;;5115520;28;20986;-69
2022/10/12 04:08:23;;;;;;;60.07;4.83;;;;;;;;;;5115473;28;20455;-69
2022/10/12 04:10:50;;;;;;;62.20;5.67;;;;;;;;;;5115271;28;20453;-68
2022/10/12 04:13:18;;;;;;;60.30;4.50;;;;;;;;;;5115383;28;20818;-68
2022/10/12 04:15:45;;;;;;;62.40;6.10;;;;;;;;;;5114371;28;20469;-69
2022/10/12 04:18:12;;;;;;;62.00;5.00;;;;;;;;;;5115512;28;20445;-68
2022/10/12 04:20:39;;;;;;;63.30;6.10;;;;;;;;;;5115239;28;20452;-68
2022/10/12 04:23:08;;;;;;;64.43;5.90;;;;;;;;;;5115264;28;21021;-69
2022/10/12 04:25:35;;;;;;;63.50;6.00;;;;;;;;;;5114843;28;20556;-69
2022/10/12 04:28:02;;;;;;;63.00;5.40;;;;;;;;;;5114523;28;20820;-69
2022/10/12 04:30:29;;;;;;;60.43;5.23;;;;;;;;;;5114709;28;20453;-69
2022/10/12 04:32:56;;;;;;;60.90;4.60;;;;;;;;;;5115225;28;20450;-69
2022/10/12 04:35:23;;;;;;;64.73;6.17;;;;;;;;;;5114913;28;21025;-69
2022/10/12 04:37:50;;;;;;;62.80;6.40;;;;;;;;;;5114705;28;20441;-69
2022/10/12 04:40:19;;;;;;;62.20;4.93;;;;;;;;;;5114649;28;20450;-69
2022/10/12 04:42:46;;;;;;;62.00;5.73;;;;;;;;;;5114536;28;20486;-69
2022/10/12 04:45:13;;;;;;;61.17;4.67;;;;;;;;;;5115020;28;20472;-69
2022/10/12 04:47:40;;;;;;;63.23;4.93;;;;;;;;;;5114856;28;20454;-69
2022/10/12 04:50:08;;;;;;;60.67;4.30;;;;;;;;;;5113790;28;20474;-69
2022/10/12 04:52:35;;;;;;;61.67;5.67;;;;;;;;;;5114740;28;20451;-69
2022/10/12 04:55:02;;;;;;;60.13;5.23;;;;;;;;;;5114504;27;20450;-69
2022/10/12 04:57:31;;;;;;;60.67;5.40;;;;;;;;;;5114323;28;20438;-69
2022/10/12 04:59:58;;;;;;;63.50;5.03;;;;;;;;;;5113580;28;20467;-68
2022/10/12 05:02:25;;;;;;;61.17;4.53;;;;;;;;;;5114147;28;20481;-68
2022/10/12 05:04:52;;;;;;;60.80;4.60;;;;;;;;;;5114400;28;20445;-68
2022/10/12 05:07:19;;;;;;;66.13;6.10;;;;;;;;;;5114318;28;20489;-68
2022/10/12 05:09:46;;;;;;;62.00;5.53;;;;;;;;;;5113669;27;20974;-68
2022/10/12 05:12:13;;;;;;;60.47;5.50;;;;;;;;;;5113966;28;20436;-69
2022/10/12 05:14:43;;;;;;;61.00;4.53;;;;;;;;;;5114041;28;20437;-68
2022/10/12 05:17:10;;;;;;;62.87;5.03;;;;;;;;;;5114039;28;20470;-68
2022/10/12 05:19:37;;;;;;;60.90;4.60;;;;;;;;;;5113913;27;20454;-68
2022/10/12 05:22:04;;;;;;;63.83;6.37;;;;;;;;;;5114054;28;20848;-68
2022/10/12 05:24:31;;;;;;;62.20;5.60;;;;;;;;;;5113304;28;20446;-68
2022/10/12 05:26:58;;;;;;;60.07;4.43;;;;;;;;;;5113871;28;20557;-69
2022/10/12 05:29:25;;;;;;;61.50;6.20;;;;;;;;;;5113758;28;20824;-69
2022/10/12 05:31:54;;;;;;;66.60;6.43;;;;;;;;;;5114006;28;20438;-69
2022/10/12 05:34:21;;;;;;;65.63;5.50;;;;;;;;;;5113621;28;20462;-69
2022/10/12 05:36:49;;;;;;;62.70;6.57;;;;;;;;;;5113126;28;20480;-70
2022/10/12 05:39:16;;;;;;;60.03;4.40;;;;;;;;;;5113277;28;20446;-68
2022/10/12 05:41:43;;;;;;;63.70;7.63;;;;;;;;;;5113381;28;21036;-71
2022/10/12 05:44:10;;;;;;;62.60;5.73;;;;;;;;;;5113861;28;20451;-71
2022/10/12 05:46:37;;;;;;;62.50;5.63;;;;;;;;;;5113078;28;20571;-69
2022/10/12 05:49:06;;;;;;;59.50;4.23;;;;;;;;;;5113077;28;20836;-69
2022/10/12 05:51:33;;;;;;;60.47;5.00;;;;;;;;;;5113364;28;20453;-69
2022/10/12 05:54:01;;;;;;;61.07;6.23;;;;;;;;;;5113646;28;20474;-69
2022/10/12 05:56:28;;;;;;;60.90;4.80;;;;;;;;;;5113314;28;20520;-69
2022/10/12 05:58:55;;;;;;;62.80;6.73;;;;;;;;;;5112310;28;20456;-69
2022/10/12 06:01:22;;;;;;;61.67;5.77;;;;;;;;;;5113371;28;20442;-69
2022/10/12 06:03:49;;;;;;;63.17;5.80;;;;;;;;;;5113277;28;20762;-69
2022/10/12 06:06:17;;;;;;;60.47;4.63;;;;;;;;;;5113325;28;20470;-69
2022/10/12 06:08:45;;;;;;;64.60;5.13;;;;;;;;;;5110873;28;20540;-69
2022/10/12 06:11:12;;;;;;;61.93;6.03;;;;;;;;;;5110164;28;20546;-69
2022/10/12 06:13:39;;;;;;;61.07;5.20;;;;;;;;;;5104466;28;20446;-70
2022/10/12 06:16:06;;;;;;;61.87;5.73;;;;;;;;;;5112973;27;20845;-69
2022/10/12 06:18:33;;;;;;;60.80;5.20;;;;;;;;;;5112534;28;20457;-70
2022/10/12 06:21:00;;;;;;;63.23;5.60;;;;;;;;;;5112524;28;20458;-68
2022/10/12 06:23:29;;;;;;;62.47;4.80;;;;;;;;;;5112813;28;20855;-70
2022/10/12 06:25:56;;;;;;;62.10;5.00;;;;;;;;;;5112677;28;20467;-70
2022/10/12 06:28:23;;;;;;;60.10;5.17;;;;;;;;;;5112866;28;20554;-70
2022/10/12 06:30:53;;;;;;;66.77;5.33;;;;;;;;;;5112497;28;20980;-69
2022/10/12 06:33:20;;;;;;;60.70;4.77;;;;;;;;;;5111975;28;20451;-70
2022/10/12 06:35:47;;;;;;;59.77;4.23;;;;;;;;;;5112510;28;20478;-70
2022/10/12 06:38:15;;;;;;;63.23;5.80;;;;;;;;;;5112666;28;20444;-69
2022/10/12 06:40:43;;;;;;;61.00;4.67;;;;;;;;;;5112438;28;20451;-69
2022/10/12 06:43:10;;;;;;;63.63;5.27;;;;;;;;;;5112785;28;20484;-69
2022/10/12 06:45:37;;;;;;;62.73;4.80;;;;;;;;;;5111833;28;20560;-69
2022/10/12 06:48:05;;;;;;;64.90;6.63;;;;;;;;;;5112375;28;20441;-69
2022/10/12 06:50:32;;;;;;;60.17;4.83;;;;;;;;;;5108931;28;20447;-70
2022/10/12 06:52:59;;;;;;;63.50;5.50;;;;;;;;;;5091257;28;20442;-70
2022/10/12 06:55:27;;;;;;;61.03;4.90;;;;;;;;;;5091480;28;21002;-69
2022/10/12 06:57:55;;;;;;;63.80;6.87;;;;;;;;;;5091782;28;20495;-69
2022/10/12 07:00:23;;;;;;;61.30;4.77;;;;;;;;;;5091570;28;20449;-71
2022/10/12 07:02:50;;;;;;;61.33;5.90;;;;;;;;;;5091839;28;20485;-69
2022/10/12 07:05:17;;;;;;;63.30;4.93;;;;;;;;;;5091868;28;20464;-69
2022/10/12 07:07:44;;;;;;;61.60;6.87;;;;;;;;;;5091847;28;20454;-70
2022/10/12 07:10:11;;;;;;;61.40;5.83;;;;;;;;;;5091602;28;20447;-70
2022/10/12 07:12:39;;;;;;;62.83;6.40;;;;;;;;;;5102673;28;20439;-69
2022/10/12 07:15:08;;;;;;;60.20;5.60;;;;;;;;;;5112279;28;20451;-72
2022/10/12 07:17:35;;;;;;;63.70;5.77;;;;;;;;;;5112390;28;20895;-72
2022/10/12 07:20:02;;;;;;;64.77;5.90;;;;;;;;;;5111964;28;20448;-72
2022/10/12 07:22:29;;;;;;;63.40;5.80;;;;;;;;;;5112117;28;20485;-72
2022/10/12 07:24:56;;;;;;;60.50;6.37;;;;;;;;;;5111421;28;20459;-72
2022/10/12 07:27:24;;;;;;;78.97;5.00;;;;;;;;;;5111952;28;20484;-69
2022/10/12 07:29:51;;;;;;;63.33;6.40;;;;;;;;;;5111929;28;20450;-69
2022/10/12 07:32:19;;;;;;;61.80;5.90;;;;;;;;;;5112382;28;20439;-69
2022/10/12 07:34:47;;;;;;;62.90;5.30;;;;;;;;;;5111623;28;20464;-69
2022/10/12 07:37:14;;;;;;;64.30;5.97;;;;;;;;;;5112000;28;20473;-69
2022/10/12 07:39:42;;;;;;;63.10;6.27;;;;;;;;;;5111580;28;21007;-69
2022/10/12 07:42:09;;;;;;;62.10;6.20;;;;;;;;;;5111692;28;20955;-69
2022/10/12 07:44:36;;;;;;;63.10;6.70;;;;;;;;;;5112055;28;20446;-70
2022/10/12 07:47:03;;;;;;;63.53;6.73;;;;;;;;;;5111312;28;20465;-69
2022/10/12 07:49:31;;;;;;;64.07;8.63;;;;;;;;;;5111552;28;20445;-69
2022/10/12 07:51:59;;;;;;;65.27;6.63;;;;;;;;;;5111804;28;20444;-69
2022/10/12 07:54:26;;;;;;;65.33;7.00;;;;;;;;;;5111699;28;20452;-69
2022/10/12 07:56:53;;;;;;;62.77;6.30;;;;;;;;;;5112154;28;20475;-69
2022/10/12 07:59:20;;;;;;;63.13;6.13;;;;;;;;;;5110679;28;20460;-69
2022/10/12 08:01:47;;;;;;;63.83;5.10;;;;;;;;;;5111819;28;20452;-69
2022/10/12 08:04:14;;;;;;;61.93;5.67;;;;;;;;;;5114658;28;20488;-69
2022/10/12 08:06:43;;;;;;;66.50;7.20;;;;;;;;;;5115450;28;20471;-69
2022/10/12 08:09:10;;;;;;;64.07;6.30;;;;;;;;;;5114772;28;20456;-69
2022/10/12 08:11:41;;;;;;;62.47;6.83;;;;;;;;;;5115518;28;20452;-69
2022/10/12 08:14:12;;;;;;;64.40;6.00;;;;;;;;;;5115564;28;20441;-69
2022/10/12 08:16:39;;;;;;;63.40;6.17;;;;;;;;;;5115537;28;20465;-69
2022/10/12 08:19:06;;;;;;;64.57;7.33;;;;;;;;;;5115005;28;20945;-69
2022/10/12 08:21:34;;;;;;;64.67;6.93;;;;;;;;;;5114713;27;20463;-70
2022/10/12 08:24:02;;;;;;;63.70;6.70;;;;;;;;;;5115171;28;20478;-70
2022/10/12 08:26:29;;;;;;;65.60;7.30;;;;;;;;;;5115218;28;20469;-70
2022/10/12 08:28:56;;;;;;;63.10;6.50;;;;;;;;;;5114935;28;20449;-70
2022/10/12 08:31:24;;;;;;;62.60;6.37;;;;;;;;;;5115210;28;20441;-69
2022/10/12 08:33:51;;;;;;;64.17;5.60;;;;;;;;;;5114310;28;20468;-69
2022/10/12 08:36:18;;;;;;;69.27;7.30;;;;;;;;;;5115020;28;20477;-69
2022/10/12 08:38:47;;;;;;;67.90;7.90;;;;;;;;;;5114847;28;20546;-69
2022/10/12 08:41:22;;;;;;;62.20;6.00;;;;;;;;;;5115172;28;20450;-70
2022/10/12 08:43:57;;;;;;;63.60;6.43;;;;;;;;;;5114380;27;20486;-69
2022/10/12 08:46:25;;;;;;;63.60;6.07;;;;;;;;;;5114788;28;20461;-70
2022/10/12 08:48:56;;;;;;;60.87;5.00;;;;;;;;;;5114351;28;20453;-70
2022/10/12 08:51:24;;;;;;;62.10;6.33;;;;;;;;;;5114829;27;20449;-69
2022/10/12 08:53:52;;;;;;;64.50;5.83;;;;;;;;;;5114704;28;20446;-70
2022/10/12 08:56:21;;;;;;;64.60;6.70;;;;;;;;;;5113901;28;20833;-69
2022/10/12 08:58:49;;;;;;;62.73;6.47;;;;;;;;;;5114203;27;20448;-70
2022/10/12 09:01:21;;;;;;;62.90;7.43;;;;;;;;;;5114395;28;20458;-70
2022/10/12 09:03:54;;;;;;;65.20;6.63;;;;;;;;;;5114820;28;20485;-69
2022/10/12 09:06:22;;;;;;;63.07;5.93;;;;;;;;;;5114227;28;20608;-70
2022/10/12 09:09:03;;;;;;;65.57;8.10;;;;;;;;;;5113755;28;20446;-70
2022/10/12 09:11:40;;;;;;;63.30;5.90;;;;;;;;;;5114187;28;21006;-69
2022/10/12 09:14:09;;;;;;;63.20;6.17;;;;;;;;;;5113239;28;20930;-68
2022/10/12 09:16:37;;;;;;;64.20;6.43;;;;;;;;;;5110235;28;20469;-68
2022/10/12 09:19:08;;;;;;;68.40;6.67;;;;;;;;;;5109916;28;20864;-68
2022/10/12 09:21:35;;;;;;;65.13;7.43;;;;;;;;;;5112861;28;20483;-69
2022/10/12 09:24:04;;;;;;;60.70;5.10;;;;;;;;;;5112876;28;20489;-69
2022/10/12 09:26:34;;;;;;;65.90;7.00;;;;;;;;;;5113037;28;20794;-69
2022/10/12 09:29:04;;;;;;;64.10;7.90;;;;;;;;;;5112779;28;20458;-69
2022/10/12 09:31:39;;;;;;;62.20;6.13;;;;;;;;;;5112303;28;21053;-69
2022/10/12 09:34:07;;;;;;;61.13;4.97;;;;;;;;;;5112898;28;20817;-68
2022/10/12 09:36:35;;;;;;;65.17;7.50;;;;;;;;;;5112745;28;20473;-70
2022/10/12 09:39:04;;;;;;;61.50;5.07;;;;;;;;;;5112598;28;20461;-68
2022/10/12 09:41:33;;;;;;;62.70;5.17;;;;;;;;;;5112103;28;20445;-68
2022/10/12 09:44:01;;;;;;;61.57;5.70;;;;;;;;;;5113171;28;20534;-68
2022/10/12 09:46:36;;;;;;;61.53;4.80;;;;;;;;;;5113455;28;20560;-69
2022/10/12 09:49:03;;;;;;;62.60;5.53;;;;;;;;;;5112935;28;21005;-68
2022/10/12 09:51:31;;;;;;;66.20;5.90;;;;;;;;;;5113328;28;20456;-69
2022/10/12 09:54:02;;;;;;;64.33;5.20;;;;;;;;;;5112495;28;20931;-68
2022/10/12 09:56:30;;;;;;;62.30;5.50;;;;;;;;;;5113340;28;20473;-66
2022/10/12 09:59:00;;;;;;;64.67;5.70;;;;;;;;;;5112353;28;20832;-68
2022/10/12 10:01:28;;;;;;;59.77;4.40;;;;;;;;;;5112192;27;20538;-71
2022/10/12 10:04:16;;;;;;;61.47;5.30;;;;;;;;;;5112786;28;20568;-70
2022/10/12 10:06:44;;;;;;;60.50;5.57;;;;;;;;;;5112733;28;20461;-67
2022/10/12 10:09:32;;;;;;;60.47;4.50;;;;;;;;;;5112910;27;20449;-69
2022/10/12 10:12:11;;;;;;;70.63;5.30;;;;;;;;;;5107959;28;20450;-68
2022/10/12 10:14:38;;;;;;;63.93;6.10;;;;;;;;;;5113285;28;20451;-69
2022/10/12 10:17:06;;;;;;;73.07;5.43;;;;;;;;;;5112360;28;20849;-68
2022/10/12 10:19:34;;;;;;;61.87;4.50;;;;;;;;;;5112573;28;20448;-69
2022/10/12 10:22:05;;;;;;;63.57;4.93;;;;;;;;;;5113286;28;20448;-69
2022/10/12 10:24:33;;;;;;;60.60;4.80;;;;;;;;;;5112766;28;20530;-69
2022/10/12 10:27:02;;;;;;;63.27;5.10;;;;;;;;;;5112650;28;20462;-69
2022/10/12 10:29:34;;;;;;;63.67;5.20;;;;;;;;;;5112358;28;20449;-69
2022/10/12 10:32:22;;;;;;;60.23;4.63;;;;;;;;;;5112783;28;20446;-69
2022/10/12 10:35:01;;;;;;;66.30;6.03;;;;;;;;;;5112569;28;20446;-69
2022/10/12 10:37:28;;;;;;;62.40;5.90;;;;;;;;;;5112867;28;20437;-69
2022/10/12 10:39:56;;;;;;;63.47;5.13;;;;;;;;;;5111647;28;20442;-69
2022/10/12 10:42:27;;;;;;;60.17;4.57;;;;;;;;;;5112987;28;20452;-69
2022/10/12 10:44:58;;;;;;;61.00;4.67;;;;;;;;;;5112422;28;20492;-69
2022/10/12 10:47:25;;;;;;;63.90;5.63;;;;;;;;;;5112466;28;20452;-69
2022/10/12 10:49:56;;;;;;;60.40;4.50;;;;;;;;;;5111955;28;20449;-69
2022/10/12 10:52:24;;;;;;;60.20;4.50;;;;;;;;;;5112265;28;20464;-69
2022/10/12 10:55:05;;;;;;;60.80;4.50;;;;;;;;;;5112243;28;20957;-69
2022/10/12 10:57:34;;;;;;;61.23;5.27;;;;;;;;;;5112473;28;20499;-69
2022/10/12 11:00:04;;;;;;;61.20;4.97;;;;;;;;;;5111918;28;20454;-69
2022/10/12 11:02:34;;;;;;;60.97;4.77;;;;;;;;;;5111511;28;20446;-69
2022/10/12 11:05:10;;;;;;;65.50;6.00;;;;;;;;;;5112386;28;20477;-69
2022/10/12 11:07:40;;;;;;;63.80;5.60;;;;;;;;;;5112340;28;20445;-69
2022/10/12 11:10:16;;;;;;;61.07;4.97;;;;;;;;;;5111891;28;20445;-69
2022/10/12 11:12:45;;;;;;;62.20;4.93;;;;;;;;;;5112091;28;20457;-69
2022/10/12 11:15:16;;;;;;;61.50;5.80;;;;;;;;;;5112159;28;20518;-69
2022/10/12 11:17:45;;;;;;;64.67;6.40;;;;;;;;;;5112133;28;20452;-69
2022/10/12 11:20:26;;;;;;;63.43;5.23;;;;;;;;;;5111756;28;20452;-69
2022/10/12 11:22:55;;;;;;;61.83;6.50;;;;;;;;;;5112121;28;20451;-69
2022/10/12 11:25:24;;;;;;;60.83;4.53;;;;;;;;;;5111577;28;20862;-69
2022/10/12 11:27:51;;;;;;;62.93;5.57;;;;;;;;;;5112130;28;20442;-68
2022/10/12 11:30:20;;;;;;;61.00;5.20;;;;;;;;;;5111404;28;20849;-69
2022/10/12 11:32:49;;;;;;;62.50;6.30;;;;;;;;;;5111899;28;20456;-68
2022/10/12 11:35:17;;;;;;;64.33;5.40;;;;;;;;;;5111432;28;20473;-69
2022/10/12 11:37:48;;;;;;;62.57;5.17;;;;;;;;;;5111750;28;20453;-69
2022/10/12 11:40:18;;;;;;;63.50;5.50;;;;;;;;;;5115628;27;20441;-69
2022/10/12 11:42:48;;;;;;;63.83;4.93;;;;;;;;;;5115491;28;20449;-69
2022/10/12 11:45:19;;;;;;;60.20;4.70;;;;;;;;;;5115484;28;20489;-69
2022/10/12 11:47:48;;;;;;;61.20;5.70;;;;;;;;;;5115241;28;20445;-68
2022/10/12 11:50:21;;;;;;;61.07;4.60;;;;;;;;;;5115194;28;20934;-69
2022/10/12 11:52:51;;;;;;;60.17;4.40;;;;;;;;;;5116028;28;20451;-69
2022/10/12 11:55:36;;;;;;;59.67;4.77;;;;;;;;;;5115663;27;21032;-68
2022/10/12 11:58:07;;;;;;;59.90;4.40;;;;;;;;;;5115604;28;21071;-69
2022/10/12 12:00:37;;;;;;;60.60;4.40;;;;;;;;;;5115129;28;20456;-69
2022/10/12 12:03:15;;;;;;;63.23;7.27;;;;;;;;;;5115802;28;20445;-69
2022/10/12 12:05:42;;;;;;;60.70;4.93;;;;;;;;;;5115791;28;20823;-68
2022/10/12 12:08:20;;;;;;;62.90;5.40;;;;;;;;;;5115532;28;20452;-69
2022/10/12 12:10:52;;;;;;;61.90;6.17;;;;;;;;;;5114690;28;20476;-69
2022/10/12 12:13:21;;;;;;;60.37;4.63;;;;;;;;;;5115529;28;20452;-68
2022/10/12 12:16:07;;;;;;;60.17;4.77;;;;;;;;;;5115579;28;20552;-69
2022/10/12 12:18:54;;;;;;;61.10;5.67;;;;;;;;;;5115134;28;20456;-69
2022/10/12 12:21:23;;;;;;;62.10;4.70;;;;;;;;;;5115242;28;20445;-69
2022/10/12 12:23:52;;;;;;;63.70;4.43;;;;;;;;;;5114692;28;20496;-69
2022/10/12 12:26:20;;;;;;;59.10;4.33;;;;;;;;;;5115039;28;20974;-69
2022/10/12 12:28:49;;;;;;;66.60;4.90;;;;;;;;;;5114918;28;20456;-69
2022/10/12 12:31:17;;;;;;;60.83;3.77;;;;;;;;;;5115128;28;20457;-69
2022/10/12 12:33:46;;;;;;;59.40;3.93;;;;;;;;;;5114363;28;20438;-69
2022/10/12 12:36:14;;;;;;;58.50;3.97;;;;;;;;;;5114998;28;20466;-69
2022/10/12 12:38:47;;;;;;;60.33;3.77;;;;;;;;;;5114780;28;20442;-69
2022/10/12 12:41:16;;;;;;;61.33;6.00;;;;;;;;;;5114904;28;20937;-68
2022/10/12 12:44:00;;;;;;;62.47;5.10;;;;;;;;;;5114723;28;20449;-69
2022/10/12 12:46:47;;;;;;;60.77;4.50;;;;;;;;;;5113952;28;20469;-69
2022/10/12 12:49:25;;;;;;;60.80;4.33;;;;;;;;;;5113521;28;20453;-69
2022/10/12 12:51:56;;;;;;;60.40;4.67;;;;;;;;;;5114590;28;20934;-69
2022/10/12 12:54:25;;;;;;;60.37;3.40;;;;;;;;;;5114560;28;20449;-69
2022/10/12 12:56:58;;;;;;;59.97;5.00;;;;;;;;;;5113892;27;20479;-69
2022/10/12 12:59:37;;;;;;;61.37;4.53;;;;;;;;;;5114354;28;20476;-69
2022/10/12 13:02:18;;;;;;;66.13;4.30;;;;;;;;;;5114440;28;20452;-69
2022/10/12 13:04:56;;;;;;;58.60;3.53;;;;;;;;;;5114388;27;20481;-69
2022/10/12 13:07:41;;;;;;;59.77;3.83;;;;;;;;;;5114548;28;20540;-69
2022/10/12 13:10:22;;;;;;;61.73;5.73;;;;;;;;;;5113408;28;21016;-69
2022/10/12 13:13:00;;;;;;;60.20;3.90;;;;;;;;;;5114313;28;20457;-69
2022/10/12 13:15:33;;;;;;;59.87;4.27;;;;;;;;;;5113989;28;20977;-69
2022/10/12 13:18:22;;;;;;;60.40;3.97;;;;;;;;;;5113904;28;20449;-69
2022/10/12 13:20:49;;;;;;;60.10;4.17;;;;;;;;;;5113233;28;20438;-69
2022/10/12 13:23:18;;;;;;;62.90;4.60;;;;;;;;;;5113981;28;20437;-68
2022/10/12 13:25:49;;;;;;;59.63;3.63;;;;;;;;;;5113661;28;20489;-69
2022/10/12 13:28:17;;;;;;;59.70;3.83;;;;;;;;;;5114073;28;20454;-69
2022/10/12 13:30:47;;;;;;;60.37;4.77;;;;;;;;;;5113793;28;20441;-69
2022/10/12 13:33:19;;;;;;;60.00;4.50;;;;;;;;;;5113436;28;20437;-69
2022/10/12 13:35:49;;;;;;;59.37;3.73;;;;;;;;;;5113531;28;21016;-69
2022/10/12 13:38:21;;;;;;;59.90;4.50;;;;;;;;;;5113665;28;20472;-69
2022/10/12 13:40:53;;;;;;;59.03;4.07;;;;;;;;;;5113302;28;20450;-69
2022/10/12 13:43:29;;;;;;;69.63;4.80;;;;;;;;;;5113506;28;20445;-69
2022/10/12 13:45:56;;;;;;;62.60;3.93;;;;;;;;;;5113566;28;20496;-69
2022/10/12 13:48:24;;;;;;;59.97;3.93;;;;;;;;;;5113495;28;20446;-70
2022/10/12 13:50:52;;;;;;;60.47;3.53;;;;;;;;;;5112788;28;20820;-70
2022/10/12 13:53:19;;;;;;;59.17;3.50;;;;;;;;;;5113742;28;20826;-70
2022/10/12 13:56:00;;;;;;;58.97;3.33;;;;;;;;;;5113432;28;20472;-70
2022/10/12 13:58:29;;;;;;;58.50;3.53;;;;;;;;;;5113730;28;20482;-70
2022/10/12 14:00:56;;;;;;;61.97;4.67;;;;;;;;;;5112603;27;20458;-69
2022/10/12 14:03:26;;;;;;;61.27;3.07;;;;;;;;;;5112652;28;20446;-69
2022/10/12 14:05:54;;;;;;;59.50;4.10;;;;;;;;;;5113454;28;20489;-69
2022/10/12 14:08:24;;;;;;;59.93;3.70;;;;;;;;;;5113347;28;20441;-70
2022/10/12 14:10:51;;;;;;;59.67;4.20;;;;;;;;;;5113113;28;20445;-69
2022/10/12 14:13:23;;;;;;;59.27;3.63;;;;;;;;;;5112510;28;20438;-69
2022/10/12 14:15:50;;;;;;;60.70;4.50;;;;;;;;;;5112848;28;20462;-69
2022/10/12 14:18:34;;;;;;;60.70;4.20;;;;;;;;;;5113024;28;20456;-69
2022/10/12 14:21:12;;;;;;;61.27;4.20;;;;;;;;;;5113089;28;20453;-69
2022/10/12 14:23:42;;;;;;;59.20;3.80;;;;;;;;;;5113007;28;20452;-69
2022/10/12 14:26:16;;;;;;;59.30;3.43;;;;;;;;;;5111985;28;20842;-69
2022/10/12 14:28:44;;;;;;;59.77;4.57;;;;;;;;;;5112344;28;20967;-69
2022/10/12 14:31:11;;;;;;;60.60;4.00;;;;;;;;;;5112944;28;20445;-68
2022/10/12 14:33:38;;;;;;;59.73;4.37;;;;;;;;;;5112679;28;20816;-69
2022/10/12 14:36:12;;;;;;;59.77;3.70;;;;;;;;;;5112154;28;20469;-69
2022/10/12 14:38:41;;;;;;;58.93;3.40;;;;;;;;;;5112034;28;20871;-68
2022/10/12 14:41:27;;;;;;;60.07;3.83;;;;;;;;;;5112907;28;20465;-68
2022/10/12 14:44:04;;;;;;;60.17;4.10;;;;;;;;;;5112603;28;20837;-68